sensor_id;sensor_type;location;lat;lon;timestamp;temperature;humidity
1546;DHT22;766;51.502;9.752;2023-10-09T00:00:34;12.40;99.90
1546;DHT22;766;51.502;9.752;2023-10-09T00:03:28;12.30;99.90
1546;DHT22;766;51.502;9.752;2023-10-09T00:05:58;12.30;99.90
1546;DHT22;766;51.502;9.752;2023-10-09T00:08:29;12.30;99.90
1546;DHT22;766;51.502;9.752;2023-10-09T00:11:00;12.20;99.90
1546;DHT22;766;51.502;9.752;2023-10-09T00:13:44;12.20;99.90
1546;DHT22;766;51.502;9.752;2023-10-09T00:16:21;12.20;99.90
1546;DHT22;766;51.502;9.752;2023-10-09T00:19:00;12.20;99.90
1546;DHT22;766;51.502;9.752;2023-10-09T00:21:41;12.20;99.90
1546;DHT22;766;51.502;9.752;2023-10-09T00:24:09;12.20;99.90
1546;DHT22;766;51.502;9.752;2023-10-09T00:26:45;12.10;99.90
1546;DHT22;766;51.502;9.752;2023-10-09T00:29:14;12.20;99.90
1546;DHT22;766;51.502;9.752;2023-10-09T00:31:49;12.20;99.90
1546;DHT22;766;51.502;9.752;2023-10-09T00:34:23;12.20;99.90
1546;DHT22;766;51.502;9.752;2023-10-09T00:36:53;12.20;99.90
1546;DHT22;766;51.502;9.752;2023-10-09T00:39:22;12.20;99.90
1546;DHT22;766;51.502;9.752;2023-10-09T00:42:09;12.20;99.90
1546;DHT22;766;51.502;9.752;2023-10-09T00:44:41;12.20;99.90
1546;DHT22;766;51.502;9.752;2023-10-09T00:47:11;12.20;99.90
1546;DHT22;766;51.502;9.752;2023-10-09T00:49:51;12.20;99.90
1546;DHT22;766;51.502;9.752;2023-10-09T00:52:27;12.20;99.90
1546;DHT22;766;51.502;9.752;2023-10-09T00:55:00;12.20;99.90
1546;DHT22;766;51.502;9.752;2023-10-09T00:57:38;12.10;99.90
1546;DHT22;766;51.502;9.752;2023-10-09T01:00:08;12.10;99.90
1546;DHT22;766;51.502;9.752;2023-10-09T01:02:56;12.10;99.90
1546;DHT22;766;51.502;9.752;2023-10-09T01:05:38;12.20;99.90
1546;DHT22;766;51.502;9.752;2023-10-09T01:08:12;12.10;99.90
1546;DHT22;766;51.502;9.752;2023-10-09T01:10:52;12.20;99.90
1546;DHT22;766;51.502;9.752;2023-10-09T01:13:25;12.20;99.90
1546;DHT22;766;51.502;9.752;2023-10-09T01:16:06;12.20;99.90
1546;DHT22;766;51.502;9.752;2023-10-09T01:18:36;12.20;99.90
1546;DHT22;766;51.502;9.752;2023-10-09T01:21:08;12.30;99.90
1546;DHT22;766;51.502;9.752;2023-10-09T01:23:41;12.20;99.90
1546;DHT22;766;51.502;9.752;2023-10-09T01:26:30;12.20;99.90
1546;DHT22;766;51.502;9.752;2023-10-09T01:29:01;12.20;99.90
1546;DHT22;766;51.502;9.752;2023-10-09T01:31:30;12.20;99.90
1546;DHT22;766;51.502;9.752;2023-10-09T01:34:04;12.20;99.90
1546;DHT22;766;51.502;9.752;2023-10-09T01:36:37;12.10;99.90
1546;DHT22;766;51.502;9.752;2023-10-09T01:39:07;12.10;99.90
1546;DHT22;766;51.502;9.752;2023-10-09T01:41:48;12.10;99.90
1546;DHT22;766;51.502;9.752;2023-10-09T01:44:19;12.10;99.90
1546;DHT22;766;51.502;9.752;2023-10-09T01:46:46;12.10;99.90
1546;DHT22;766;51.502;9.752;2023-10-09T01:49:14;12.10;99.90
1546;DHT22;766;51.502;9.752;2023-10-09T01:51:50;12.10;99.90
1546;DHT22;766;51.502;9.752;2023-10-09T01:54:20;12.10;99.90
1546;DHT22;766;51.502;9.752;2023-10-09T01:57:00;12.10;99.90
1546;DHT22;766;51.502;9.752;2023-10-09T01:59:32;12.10;99.90
1546;DHT22;766;51.502;9.752;2023-10-09T02:02:05;12.10;99.90
1546;DHT22;766;51.502;9.752;2023-10-09T02:04:55;12.10;99.90
1546;DHT22;766;51.502;9.752;2023-10-09T02:07:33;12.10;99.90
1546;DHT22;766;51.502;9.752;2023-10-09T02:10:11;12.10;99.90
1546;DHT22;766;51.502;9.752;2023-10-09T02:12:49;12.20;99.90
1546;DHT22;766;51.502;9.752;2023-10-09T02:15:25;12.10;99.90
1546;DHT22;766;51.502;9.752;2023-10-09T02:18:20;12.10;99.90
1546;DHT22;766;51.502;9.752;2023-10-09T02:21:08;12.00;99.90
1546;DHT22;766;51.502;9.752;2023-10-09T02:23:42;12.00;99.90
1546;DHT22;766;51.502;9.752;2023-10-09T02:26:18;11.90;99.90
1546;DHT22;766;51.502;9.752;2023-10-09T02:28:53;11.90;99.90
1546;DHT22;766;51.502;9.752;2023-10-09T02:31:27;11.90;99.90
1546;DHT22;766;51.502;9.752;2023-10-09T02:34:05;11.80;99.90
1546;DHT22;766;51.502;9.752;2023-10-09T02:36:34;11.80;99.90
1546;DHT22;766;51.502;9.752;2023-10-09T02:39:05;11.80;99.90
1546;DHT22;766;51.502;9.752;2023-10-09T02:41:37;11.90;99.90
1546;DHT22;766;51.502;9.752;2023-10-09T02:44:11;11.80;99.90
1546;DHT22;766;51.502;9.752;2023-10-09T02:46:41;11.90;99.90
1546;DHT22;766;51.502;9.752;2023-10-09T02:49:13;11.80;99.90
1546;DHT22;766;51.502;9.752;2023-10-09T02:51:42;11.90;99.90
1546;DHT22;766;51.502;9.752;2023-10-09T02:54:19;11.90;99.90
1546;DHT22;766;51.502;9.752;2023-10-09T02:57:02;12.00;99.90
1546;DHT22;766;51.502;9.752;2023-10-09T02:59:35;12.00;99.90
1546;DHT22;766;51.502;9.752;2023-10-09T03:02:05;12.00;99.90
1546;DHT22;766;51.502;9.752;2023-10-09T03:04:35;12.10;99.90
1546;DHT22;766;51.502;9.752;2023-10-09T03:07:06;12.20;99.90
1546;DHT22;766;51.502;9.752;2023-10-09T03:09:34;12.20;99.90
1546;DHT22;766;51.502;9.752;2023-10-09T03:12:04;12.20;99.90
1546;DHT22;766;51.502;9.752;2023-10-09T03:14:34;12.30;99.90
1546;DHT22;766;51.502;9.752;2023-10-09T03:17:05;12.30;99.90
1546;DHT22;766;51.502;9.752;2023-10-09T03:19:40;12.30;99.90
1546;DHT22;766;51.502;9.752;2023-10-09T03:22:11;12.40;99.90
1546;DHT22;766;51.502;9.752;2023-10-09T03:24:40;12.40;99.90
1546;DHT22;766;51.502;9.752;2023-10-09T03:27:17;12.50;99.90
1546;DHT22;766;51.502;9.752;2023-10-09T03:29:45;12.50;99.90
1546;DHT22;766;51.502;9.752;2023-10-09T03:32:21;12.50;99.90
1546;DHT22;766;51.502;9.752;2023-10-09T03:34:50;12.50;99.90
1546;DHT22;766;51.502;9.752;2023-10-09T03:37:19;12.50;99.90
1546;DHT22;766;51.502;9.752;2023-10-09T03:40:01;12.50;99.90
1546;DHT22;766;51.502;9.752;2023-10-09T03:42:31;12.50;99.90
1546;DHT22;766;51.502;9.752;2023-10-09T03:45:03;12.50;99.90
1546;DHT22;766;51.502;9.752;2023-10-09T03:47:40;12.50;99.90
1546;DHT22;766;51.502;9.752;2023-10-09T03:50:11;12.50;99.90
1546;DHT22;766;51.502;9.752;2023-10-09T03:52:53;12.50;99.90
1546;DHT22;766;51.502;9.752;2023-10-09T03:55:22;12.50;99.90
1546;DHT22;766;51.502;9.752;2023-10-09T03:57:55;12.50;99.90
1546;DHT22;766;51.502;9.752;2023-10-09T04:00:27;12.50;99.90
1546;DHT22;766;51.502;9.752;2023-10-09T04:02:56;12.50;99.90
1546;DHT22;766;51.502;9.752;2023-10-09T04:05:26;12.50;99.90
1546;DHT22;766;51.502;9.752;2023-10-09T04:07:55;12.50;99.90
1546;DHT22;766;51.502;9.752;2023-10-09T04:10:26;12.50;99.90
1546;DHT22;766;51.502;9.752;2023-10-09T04:13:17;12.40;99.90
1546;DHT22;766;51.502;9.752;2023-10-09T04:15:45;12.50;99.90
1546;DHT22;766;51.502;9.752;2023-10-09T04:18:16;12.50;99.90
1546;DHT22;766;51.502;9.752;2023-10-09T04:20:47;12.50;99.90
1546;DHT22;766;51.502;9.752;2023-10-09T04:23:34;12.50;99.90
1546;DHT22;766;51.502;9.752;2023-10-09T04:26:23;12.50;99.90
1546;DHT22;766;51.502;9.752;2023-10-09T04:28:55;12.50;99.90
1546;DHT22;766;51.502;9.752;2023-10-09T04:31:23;12.50;99.90
1546;DHT22;766;51.502;9.752;2023-10-09T04:33:59;12.60;99.90
1546;DHT22;766;51.502;9.752;2023-10-09T04:36:42;12.60;99.90
1546;DHT22;766;51.502;9.752;2023-10-09T04:39:18;12.60;99.90
1546;DHT22;766;51.502;9.752;2023-10-09T04:42:13;12.60;99.90
1546;DHT22;766;51.502;9.752;2023-10-09T04:45:04;12.60;99.90
1546;DHT22;766;51.502;9.752;2023-10-09T04:48:18;12.60;99.90
1546;DHT22;766;51.502;9.752;2023-10-09T04:51:00;12.60;99.90
1546;DHT22;766;51.502;9.752;2023-10-09T04:53:52;12.60;99.90
1546;DHT22;766;51.502;9.752;2023-10-09T04:56:40;12.60;99.90
1546;DHT22;766;51.502;9.752;2023-10-09T04:59:19;12.60;99.90
1546;DHT22;766;51.502;9.752;2023-10-09T05:01:52;12.60;99.90
1546;DHT22;766;51.502;9.752;2023-10-09T05:04:26;12.60;99.90
1546;DHT22;766;51.502;9.752;2023-10-09T05:07:01;12.50;99.90
1546;DHT22;766;51.502;9.752;2023-10-09T05:09:50;12.50;99.90
1546;DHT22;766;51.502;9.752;2023-10-09T05:12:32;12.50;99.90
1546;DHT22;766;51.502;9.752;2023-10-09T05:15:00;12.50;99.90
1546;DHT22;766;51.502;9.752;2023-10-09T05:17:35;12.50;99.90
1546;DHT22;766;51.502;9.752;2023-10-09T05:20:07;12.50;99.90
1546;DHT22;766;51.502;9.752;2023-10-09T05:23:04;12.50;99.90
1546;DHT22;766;51.502;9.752;2023-10-09T05:25:51;12.50;99.90
1546;DHT22;766;51.502;9.752;2023-10-09T05:28:22;12.50;99.90
1546;DHT22;766;51.502;9.752;2023-10-09T05:30:58;12.60;99.90
1546;DHT22;766;51.502;9.752;2023-10-09T05:33:35;12.60;99.90
1546;DHT22;766;51.502;9.752;2023-10-09T05:36:05;12.60;99.90
1546;DHT22;766;51.502;9.752;2023-10-09T05:38:58;12.60;99.90
1546;DHT22;766;51.502;9.752;2023-10-09T05:41:46;12.60;99.90
1546;DHT22;766;51.502;9.752;2023-10-09T05:44:19;12.60;99.90
1546;DHT22;766;51.502;9.752;2023-10-09T05:47:19;12.60;99.90
1546;DHT22;766;51.502;9.752;2023-10-09T05:49:56;12.60;99.90
1546;DHT22;766;51.502;9.752;2023-10-09T05:52:47;12.60;99.90
1546;DHT22;766;51.502;9.752;2023-10-09T05:55:32;12.60;99.90
1546;DHT22;766;51.502;9.752;2023-10-09T05:58:19;12.60;99.90
1546;DHT22;766;51.502;9.752;2023-10-09T06:01:07;12.60;99.90
1546;DHT22;766;51.502;9.752;2023-10-09T06:03:52;12.60;99.90
1546;DHT22;766;51.502;9.752;2023-10-09T06:06:32;12.70;99.90
1546;DHT22;766;51.502;9.752;2023-10-09T06:09:10;12.70;99.90
1546;DHT22;766;51.502;9.752;2023-10-09T06:12:02;12.70;99.90
1546;DHT22;766;51.502;9.752;2023-10-09T06:14:50;12.70;99.90
1546;DHT22;766;51.502;9.752;2023-10-09T06:17:25;12.70;99.90
1546;DHT22;766;51.502;9.752;2023-10-09T06:19:58;12.80;99.90
1546;DHT22;766;51.502;9.752;2023-10-09T06:22:52;12.80;99.90
1546;DHT22;766;51.502;9.752;2023-10-09T06:25:25;12.80;99.90
1546;DHT22;766;51.502;9.752;2023-10-09T06:28:00;12.80;99.90
1546;DHT22;766;51.502;9.752;2023-10-09T06:30:29;12.80;99.90
1546;DHT22;766;51.502;9.752;2023-10-09T06:33:02;12.90;99.90
1546;DHT22;766;51.502;9.752;2023-10-09T06:35:47;12.90;99.90
1546;DHT22;766;51.502;9.752;2023-10-09T06:38:20;13.00;99.90
1546;DHT22;766;51.502;9.752;2023-10-09T06:41:07;13.00;99.90
1546;DHT22;766;51.502;9.752;2023-10-09T06:44:02;13.00;99.90
1546;DHT22;766;51.502;9.752;2023-10-09T06:46:35;13.00;99.90
1546;DHT22;766;51.502;9.752;2023-10-09T06:49:11;13.00;99.90
1546;DHT22;766;51.502;9.752;2023-10-09T06:52:00;13.10;99.90
1546;DHT22;766;51.502;9.752;2023-10-09T06:54:42;13.20;99.90
1546;DHT22;766;51.502;9.752;2023-10-09T06:57:18;13.30;99.90
1546;DHT22;766;51.502;9.752;2023-10-09T07:00:00;13.30;99.90
1546;DHT22;766;51.502;9.752;2023-10-09T07:02:59;13.40;99.90
1546;DHT22;766;51.502;9.752;2023-10-09T07:05:38;13.50;99.90
1546;DHT22;766;51.502;9.752;2023-10-09T07:08:27;13.50;99.90
1546;DHT22;766;51.502;9.752;2023-10-09T07:11:04;13.50;99.90
1546;DHT22;766;51.502;9.752;2023-10-09T07:14:16;13.50;99.90
1546;DHT22;766;51.502;9.752;2023-10-09T07:17:19;13.50;99.90
1546;DHT22;766;51.502;9.752;2023-10-09T07:19:54;13.50;99.90
1546;DHT22;766;51.502;9.752;2023-10-09T07:22:43;13.50;99.90
1546;DHT22;766;51.502;9.752;2023-10-09T07:25:31;13.50;99.90
1546;DHT22;766;51.502;9.752;2023-10-09T07:28:12;13.50;99.90
1546;DHT22;766;51.502;9.752;2023-10-09T07:30:54;13.60;99.90
1546;DHT22;766;51.502;9.752;2023-10-09T07:33:25;13.60;99.90
1546;DHT22;766;51.502;9.752;2023-10-09T07:36:20;13.60;99.90
1546;DHT22;766;51.502;9.752;2023-10-09T07:39:02;13.70;99.90
1546;DHT22;766;51.502;9.752;2023-10-09T07:41:40;13.70;99.90
1546;DHT22;766;51.502;9.752;2023-10-09T07:44:23;13.80;99.90
1546;DHT22;766;51.502;9.752;2023-10-09T07:47:10;13.80;99.90
1546;DHT22;766;51.502;9.752;2023-10-09T07:49:44;13.90;99.90
1546;DHT22;766;51.502;9.752;2023-10-09T07:52:21;13.90;99.90
1546;DHT22;766;51.502;9.752;2023-10-09T07:54:50;14.00;99.90
1546;DHT22;766;51.502;9.752;2023-10-09T07:57:21;13.90;99.90
1546;DHT22;766;51.502;9.752;2023-10-09T07:59:56;14.00;99.90
1546;DHT22;766;51.502;9.752;2023-10-09T08:02:39;14.00;99.90
1546;DHT22;766;51.502;9.752;2023-10-09T08:05:09;14.00;99.90
1546;DHT22;766;51.502;9.752;2023-10-09T08:07:48;14.00;99.90
1546;DHT22;766;51.502;9.752;2023-10-09T08:10:39;14.00;99.90
1546;DHT22;766;51.502;9.752;2023-10-09T08:13:24;14.00;99.90
1546;DHT22;766;51.502;9.752;2023-10-09T08:16:10;14.00;99.90
1546;DHT22;766;51.502;9.752;2023-10-09T08:18:44;14.10;99.90
1546;DHT22;766;51.502;9.752;2023-10-09T08:21:12;14.20;99.90
1546;DHT22;766;51.502;9.752;2023-10-09T08:24:10;14.20;99.90
1546;DHT22;766;51.502;9.752;2023-10-09T08:27:02;14.30;99.90
1546;DHT22;766;51.502;9.752;2023-10-09T08:29:51;14.40;99.90
1546;DHT22;766;51.502;9.752;2023-10-09T08:32:39;14.50;99.90
1546;DHT22;766;51.502;9.752;2023-10-09T08:35:12;14.60;99.90
1546;DHT22;766;51.502;9.752;2023-10-09T08:37:57;14.60;99.90
1546;DHT22;766;51.502;9.752;2023-10-09T08:40:31;14.70;99.90
1546;DHT22;766;51.502;9.752;2023-10-09T08:43:09;14.70;99.90
1546;DHT22;766;51.502;9.752;2023-10-09T08:45:45;14.70;99.90
1546;DHT22;766;51.502;9.752;2023-10-09T08:48:14;14.80;99.90
1546;DHT22;766;51.502;9.752;2023-10-09T08:50:45;14.70;99.90
1546;DHT22;766;51.502;9.752;2023-10-09T08:53:17;14.80;99.90
1546;DHT22;766;51.502;9.752;2023-10-09T08:55:46;14.70;99.90
1546;DHT22;766;51.502;9.752;2023-10-09T08:58:15;14.80;99.90
1546;DHT22;766;51.502;9.752;2023-10-09T09:00:48;14.80;99.90
1546;DHT22;766;51.502;9.752;2023-10-09T09:03:22;14.90;99.90
1546;DHT22;766;51.502;9.752;2023-10-09T09:05:57;14.90;99.90
1546;DHT22;766;51.502;9.752;2023-10-09T09:08:29;15.00;99.90
1546;DHT22;766;51.502;9.752;2023-10-09T09:11:01;15.00;99.90
1546;DHT22;766;51.502;9.752;2023-10-09T09:13:40;15.00;99.90
1546;DHT22;766;51.502;9.752;2023-10-09T09:16:16;15.10;99.90
1546;DHT22;766;51.502;9.752;2023-10-09T09:18:52;15.10;99.90
1546;DHT22;766;51.502;9.752;2023-10-09T09:21:28;15.10;99.90
1546;DHT22;766;51.502;9.752;2023-10-09T09:23:58;15.10;99.90
1546;DHT22;766;51.502;9.752;2023-10-09T09:26:38;15.10;99.90
1546;DHT22;766;51.502;9.752;2023-10-09T09:29:12;15.00;99.90
1546;DHT22;766;51.502;9.752;2023-10-09T09:31:52;15.00;99.90
1546;DHT22;766;51.502;9.752;2023-10-09T09:34:21;15.00;99.90
1546;DHT22;766;51.502;9.752;2023-10-09T09:36:58;15.00;99.90
1546;DHT22;766;51.502;9.752;2023-10-09T09:39:30;15.00;99.90
1546;DHT22;766;51.502;9.752;2023-10-09T09:42:20;15.10;99.90
1546;DHT22;766;51.502;9.752;2023-10-09T09:44:52;15.20;99.90
1546;DHT22;766;51.502;9.752;2023-10-09T09:47:22;15.10;99.90
1546;DHT22;766;51.502;9.752;2023-10-09T09:49:55;15.10;99.90
1546;DHT22;766;51.502;9.752;2023-10-09T09:52:31;15.10;99.90
1546;DHT22;766;51.502;9.752;2023-10-09T09:55:08;15.10;99.90
1546;DHT22;766;51.502;9.752;2023-10-09T09:57:44;15.00;99.90
1546;DHT22;766;51.502;9.752;2023-10-09T10:00:20;15.00;99.90
1546;DHT22;766;51.502;9.752;2023-10-09T10:03:03;15.00;99.90
1546;DHT22;766;51.502;9.752;2023-10-09T10:05:37;15.00;99.90
1546;DHT22;766;51.502;9.752;2023-10-09T10:08:07;15.10;99.90
1546;DHT22;766;51.502;9.752;2023-10-09T10:10:41;15.10;99.90
1546;DHT22;766;51.502;9.752;2023-10-09T10:13:54;15.10;99.90
1546;DHT22;766;51.502;9.752;2023-10-09T10:16:28;15.00;99.90
1546;DHT22;766;51.502;9.752;2023-10-09T10:19:03;15.10;99.90
1546;DHT22;766;51.502;9.752;2023-10-09T10:21:49;15.10;99.90
1546;DHT22;766;51.502;9.752;2023-10-09T10:24:41;15.20;99.90
1546;DHT22;766;51.502;9.752;2023-10-09T10:27:29;15.20;99.90
1546;DHT22;766;51.502;9.752;2023-10-09T10:30:29;15.20;99.90
1546;DHT22;766;51.502;9.752;2023-10-09T10:33:06;15.20;99.90
1546;DHT22;766;51.502;9.752;2023-10-09T10:35:41;15.20;99.90
1546;DHT22;766;51.502;9.752;2023-10-09T10:38:27;15.30;99.90
1546;DHT22;766;51.502;9.752;2023-10-09T10:41:14;15.30;99.90
1546;DHT22;766;51.502;9.752;2023-10-09T10:43:45;15.40;99.90
1546;DHT22;766;51.502;9.752;2023-10-09T10:46:23;15.40;99.90
1546;DHT22;766;51.502;9.752;2023-10-09T10:49:06;15.40;99.90
1546;DHT22;766;51.502;9.752;2023-10-09T10:51:48;15.50;99.90
1546;DHT22;766;51.502;9.752;2023-10-09T10:54:28;15.70;99.90
1546;DHT22;766;51.502;9.752;2023-10-09T10:57:20;15.80;99.90
1546;DHT22;766;51.502;9.752;2023-10-09T10:59:56;15.80;99.90
1546;DHT22;766;51.502;9.752;2023-10-09T11:02:45;15.80;99.90
1546;DHT22;766;51.502;9.752;2023-10-09T11:05:15;15.80;99.90
1546;DHT22;766;51.502;9.752;2023-10-09T11:07:57;15.90;99.90
1546;DHT22;766;51.502;9.752;2023-10-09T11:10:28;16.00;99.90
1546;DHT22;766;51.502;9.752;2023-10-09T11:13:02;16.00;99.90
1546;DHT22;766;51.502;9.752;2023-10-09T11:15:48;16.00;99.90
1546;DHT22;766;51.502;9.752;2023-10-09T11:18:26;16.00;99.90
1546;DHT22;766;51.502;9.752;2023-10-09T11:20:57;16.00;99.90
1546;DHT22;766;51.502;9.752;2023-10-09T11:23:46;16.10;99.90
1546;DHT22;766;51.502;9.752;2023-10-09T11:26:25;16.20;99.90
1546;DHT22;766;51.502;9.752;2023-10-09T11:29:11;16.30;99.90
1546;DHT22;766;51.502;9.752;2023-10-09T11:32:01;16.30;99.90
1546;DHT22;766;51.502;9.752;2023-10-09T11:34:51;16.40;99.90
1546;DHT22;766;51.502;9.752;2023-10-09T11:37:23;16.50;99.90
1546;DHT22;766;51.502;9.752;2023-10-09T11:40:07;16.50;99.90
1546;DHT22;766;51.502;9.752;2023-10-09T11:42:50;16.60;99.90
1546;DHT22;766;51.502;9.752;2023-10-09T11:45:25;16.70;99.90
1546;DHT22;766;51.502;9.752;2023-10-09T11:48:15;16.70;99.90
1546;DHT22;766;51.502;9.752;2023-10-09T11:50:52;16.70;99.90
1546;DHT22;766;51.502;9.752;2023-10-09T11:53:23;16.60;99.90
1546;DHT22;766;51.502;9.752;2023-10-09T11:56:03;16.50;99.90
1546;DHT22;766;51.502;9.752;2023-10-09T11:58:32;16.50;99.90
1546;DHT22;766;51.502;9.752;2023-10-09T12:01:11;16.40;99.90
1546;DHT22;766;51.502;9.752;2023-10-09T12:03:44;16.30;99.90
1546;DHT22;766;51.502;9.752;2023-10-09T12:06:20;16.30;99.90
1546;DHT22;766;51.502;9.752;2023-10-09T12:08:50;16.30;99.90
1546;DHT22;766;51.502;9.752;2023-10-09T12:11:19;16.20;99.90
1546;DHT22;766;51.502;9.752;2023-10-09T12:13:56;16.10;99.90
1546;DHT22;766;51.502;9.752;2023-10-09T12:16:25;16.10;99.90
1546;DHT22;766;51.502;9.752;2023-10-09T12:18:55;16.00;99.90
1546;DHT22;766;51.502;9.752;2023-10-09T12:21:25;16.00;99.90
1546;DHT22;766;51.502;9.752;2023-10-09T12:23:55;15.90;99.90
1546;DHT22;766;51.502;9.752;2023-10-09T12:26:28;15.80;99.90
1546;DHT22;766;51.502;9.752;2023-10-09T12:29:02;15.70;99.90
1546;DHT22;766;51.502;9.752;2023-10-09T12:31:31;15.70;99.90
1546;DHT22;766;51.502;9.752;2023-10-09T12:34:01;15.60;99.90
1546;DHT22;766;51.502;9.752;2023-10-09T12:36:31;15.60;99.90
1546;DHT22;766;51.502;9.752;2023-10-09T12:39:04;15.70;99.90
1546;DHT22;766;51.502;9.752;2023-10-09T12:41:33;15.70;99.90
1546;DHT22;766;51.502;9.752;2023-10-09T12:44:02;15.70;99.90
1546;DHT22;766;51.502;9.752;2023-10-09T12:46:31;15.80;99.90
1546;DHT22;766;51.502;9.752;2023-10-09T12:49:05;15.80;99.90
1546;DHT22;766;51.502;9.752;2023-10-09T12:51:35;15.90;99.90
1546;DHT22;766;51.502;9.752;2023-10-09T12:54:03;16.00;99.90
1546;DHT22;766;51.502;9.752;2023-10-09T12:56:31;15.90;99.90
1546;DHT22;766;51.502;9.752;2023-10-09T12:59:06;15.90;99.90
1546;DHT22;766;51.502;9.752;2023-10-09T13:01:34;15.90;99.90
1546;DHT22;766;51.502;9.752;2023-10-09T13:04:10;15.90;99.90
1546;DHT22;766;51.502;9.752;2023-10-09T13:06:42;15.90;99.90
1546;DHT22;766;51.502;9.752;2023-10-09T13:09:12;15.90;99.90
1546;DHT22;766;51.502;9.752;2023-10-09T13:11:41;15.90;99.90
1546;DHT22;766;51.502;9.752;2023-10-09T13:14:11;15.90;99.90
1546;DHT22;766;51.502;9.752;2023-10-09T13:16:44;15.80;99.90
1546;DHT22;766;51.502;9.752;2023-10-09T13:19:14;15.90;99.90
1546;DHT22;766;51.502;9.752;2023-10-09T13:21:44;15.80;99.90
1546;DHT22;766;51.502;9.752;2023-10-09T13:24:13;15.80;99.90
1546;DHT22;766;51.502;9.752;2023-10-09T13:26:43;15.80;99.90
1546;DHT22;766;51.502;9.752;2023-10-09T13:29:14;15.80;99.90
1546;DHT22;766;51.502;9.752;2023-10-09T13:31:50;15.80;99.90
1546;DHT22;766;51.502;9.752;2023-10-09T13:34:20;15.80;99.90
1546;DHT22;766;51.502;9.752;2023-10-09T13:36:49;15.80;99.90
1546;DHT22;766;51.502;9.752;2023-10-09T13:39:20;15.80;99.90
1546;DHT22;766;51.502;9.752;2023-10-09T13:41:52;15.70;99.90
1546;DHT22;766;51.502;9.752;2023-10-09T13:44:26;15.80;99.90
1546;DHT22;766;51.502;9.752;2023-10-09T13:46:55;15.80;99.90
1546;DHT22;766;51.502;9.752;2023-10-09T13:49:24;15.80;99.90
1546;DHT22;766;51.502;9.752;2023-10-09T13:51:59;15.80;99.90
1546;DHT22;766;51.502;9.752;2023-10-09T13:54:29;15.80;99.90
1546;DHT22;766;51.502;9.752;2023-10-09T13:57:07;15.80;99.90
1546;DHT22;766;51.502;9.752;2023-10-09T13:59:38;15.80;99.90
1546;DHT22;766;51.502;9.752;2023-10-09T14:02:10;15.80;99.90
1546;DHT22;766;51.502;9.752;2023-10-09T14:04:45;15.80;99.90
1546;DHT22;766;51.502;9.752;2023-10-09T14:07:16;15.80;99.90
1546;DHT22;766;51.502;9.752;2023-10-09T14:09:45;15.80;99.90
1546;DHT22;766;51.502;9.752;2023-10-09T14:12:22;15.80;99.90
1546;DHT22;766;51.502;9.752;2023-10-09T14:14:52;15.90;99.90
1546;DHT22;766;51.502;9.752;2023-10-09T14:17:23;15.90;99.90
1546;DHT22;766;51.502;9.752;2023-10-09T14:19:53;16.00;99.90
1546;DHT22;766;51.502;9.752;2023-10-09T14:22:24;16.00;99.90
1546;DHT22;766;51.502;9.752;2023-10-09T14:24:54;16.00;99.90
1546;DHT22;766;51.502;9.752;2023-10-09T14:27:24;16.00;99.90
1546;DHT22;766;51.502;9.752;2023-10-09T14:29:56;16.00;99.90
1546;DHT22;766;51.502;9.752;2023-10-09T14:32:27;15.90;99.90
1546;DHT22;766;51.502;9.752;2023-10-09T14:35:01;15.90;99.90
1546;DHT22;766;51.502;9.752;2023-10-09T14:37:31;15.90;99.90
1546;DHT22;766;51.502;9.752;2023-10-09T14:40:00;16.00;99.90
1546;DHT22;766;51.502;9.752;2023-10-09T14:42:28;15.90;99.90
1546;DHT22;766;51.502;9.752;2023-10-09T14:44:56;15.90;99.90
1546;DHT22;766;51.502;9.752;2023-10-09T14:47:25;15.90;99.90
1546;DHT22;766;51.502;9.752;2023-10-09T14:49:53;15.80;99.90
1546;DHT22;766;51.502;9.752;2023-10-09T14:52:23;15.80;99.90
1546;DHT22;766;51.502;9.752;2023-10-09T14:54:55;15.80;99.90
1546;DHT22;766;51.502;9.752;2023-10-09T14:57:25;15.80;99.90
1546;DHT22;766;51.502;9.752;2023-10-09T14:59:53;15.80;99.90
1546;DHT22;766;51.502;9.752;2023-10-09T15:02:23;15.80;99.90
1546;DHT22;766;51.502;9.752;2023-10-09T15:04:51;15.80;99.90
1546;DHT22;766;51.502;9.752;2023-10-09T15:07:20;15.80;99.90
1546;DHT22;766;51.502;9.752;2023-10-09T15:10:08;15.80;99.90
1546;DHT22;766;51.502;9.752;2023-10-09T15:12:39;15.80;99.90
1546;DHT22;766;51.502;9.752;2023-10-09T15:15:13;15.80;99.90
1546;DHT22;766;51.502;9.752;2023-10-09T15:17:42;15.80;99.90
1546;DHT22;766;51.502;9.752;2023-10-09T15:20:17;15.80;99.90
1546;DHT22;766;51.502;9.752;2023-10-09T15:22:47;15.80;99.90
1546;DHT22;766;51.502;9.752;2023-10-09T15:25:18;15.80;99.90
1546;DHT22;766;51.502;9.752;2023-10-09T15:27:49;15.80;99.90
1546;DHT22;766;51.502;9.752;2023-10-09T15:30:18;15.80;99.90
1546;DHT22;766;51.502;9.752;2023-10-09T15:32:46;15.80;99.90
1546;DHT22;766;51.502;9.752;2023-10-09T15:35:16;15.80;99.90
1546;DHT22;766;51.502;9.752;2023-10-09T15:37:48;15.70;99.90
1546;DHT22;766;51.502;9.752;2023-10-09T15:40:23;15.80;99.90
1546;DHT22;766;51.502;9.752;2023-10-09T15:42:52;15.80;99.90
1546;DHT22;766;51.502;9.752;2023-10-09T15:45:23;15.80;99.90
1546;DHT22;766;51.502;9.752;2023-10-09T15:47:55;15.80;99.90
1546;DHT22;766;51.502;9.752;2023-10-09T15:50:24;15.80;99.90
1546;DHT22;766;51.502;9.752;2023-10-09T15:52:53;15.80;99.90
1546;DHT22;766;51.502;9.752;2023-10-09T15:55:23;15.80;99.90
1546;DHT22;766;51.502;9.752;2023-10-09T15:57:52;15.80;99.90
1546;DHT22;766;51.502;9.752;2023-10-09T16:00:22;15.80;99.90
1546;DHT22;766;51.502;9.752;2023-10-09T16:02:56;15.80;99.90
1546;DHT22;766;51.502;9.752;2023-10-09T16:05:28;15.80;99.90
1546;DHT22;766;51.502;9.752;2023-10-09T16:07:57;15.80;99.90
1546;DHT22;766;51.502;9.752;2023-10-09T16:10:28;15.80;99.90
1546;DHT22;766;51.502;9.752;2023-10-09T16:12:58;15.80;99.90
1546;DHT22;766;51.502;9.752;2023-10-09T16:15:27;15.80;99.90
1546;DHT22;766;51.502;9.752;2023-10-09T16:17:56;15.80;99.90
1546;DHT22;766;51.502;9.752;2023-10-09T16:20:30;15.80;99.90
1546;DHT22;766;51.502;9.752;2023-10-09T16:22:59;15.80;99.90
1546;DHT22;766;51.502;9.752;2023-10-09T16:25:33;15.80;99.90
1546;DHT22;766;51.502;9.752;2023-10-09T16:28:02;15.80;99.90
1546;DHT22;766;51.502;9.752;2023-10-09T16:30:31;15.80;99.90
1546;DHT22;766;51.502;9.752;2023-10-09T16:33:02;15.80;99.90
1546;DHT22;766;51.502;9.752;2023-10-09T16:35:32;15.80;99.90
1546;DHT22;766;51.502;9.752;2023-10-09T16:38:01;15.80;99.90
1546;DHT22;766;51.502;9.752;2023-10-09T16:40:36;15.70;99.90
1546;DHT22;766;51.502;9.752;2023-10-09T16:43:05;15.70;99.90
1546;DHT22;766;51.502;9.752;2023-10-09T16:45:40;15.70;99.90
1546;DHT22;766;51.502;9.752;2023-10-09T16:48:11;15.80;99.90
1546;DHT22;766;51.502;9.752;2023-10-09T16:50:45;15.80;99.90
1546;DHT22;766;51.502;9.752;2023-10-09T16:53:14;15.70;99.90
1546;DHT22;766;51.502;9.752;2023-10-09T16:55:51;15.70;99.90
1546;DHT22;766;51.502;9.752;2023-10-09T16:58:24;15.70;99.90
1546;DHT22;766;51.502;9.752;2023-10-09T17:00:53;15.70;99.90
1546;DHT22;766;51.502;9.752;2023-10-09T17:03:24;15.70;99.90
1546;DHT22;766;51.502;9.752;2023-10-09T17:05:55;15.70;99.90
1546;DHT22;766;51.502;9.752;2023-10-09T17:08:25;15.70;99.90
1546;DHT22;766;51.502;9.752;2023-10-09T17:10:58;15.70;99.90
1546;DHT22;766;51.502;9.752;2023-10-09T17:13:27;15.70;99.90